Social Hill, Arkansas
Current Conditions -  °F | °C
As of 5:53 PM on Wednesday 28 Jan 2015 (Local Time) from KHOT Reporting Station
Clear Clear  
Wind Chill: 65°   Ceiling: Unl
Heat Index: 65°   Visibility: 10mi
Dew Point: 44°   Wind: 5mph
Humidity: 47%   Direction: 140°SE
Pressure: 30.04"   Gusts: NA
Location:  34.3189°N, 92.8629°W
Report Text: KHOT 282353Z AUTO 14004KT 10SM CLR 18/07 A3004 RMK AO2 SLP172 T01830067 10206 20144 55011
Loading
Personal Weather Stations






























Interactive Weather Map New forecast layout! Learn more

10-Day Weather Forecast

Advertisements
Track Severe Weather on mobile